Time;durP1;ratioP1;P1;durP2;ratioP2;P2;SDS_P1;SDS_P2;PMS_P1;PMS_P2;Temp;Humidity;BMP_temperature;BMP_pressure;BME280_temperature;BME280_humidity;BME280_pressure;Samples;Min_cycle;Max_cycle;Signal;HPM_P1;HPM_P2
2022/08/16 00:00:44;;;;;;;6.97;3.70;;;;;;;19.69;82.73;99017.59;12225119;19;20022;-81
2022/08/16 00:04:46;;;;;;;6.90;3.45;;;;;;;19.64;83.74;99012.13;12211682;19;20010;-81
2022/08/16 00:08:51;;;;;;;4.55;3.40;;;;;;;19.62;83.35;99019.19;12237246;19;20518;-82
2022/08/16 00:12:53;;;;;;;6.30;3.55;;;;;;;19.59;83.48;99018.69;12233948;19;20465;-82
2022/08/16 00:16:56;;;;;;;6.78;4.00;;;;;;;19.56;83.65;99016.56;12208719;19;20051;-81
2022/08/16 00:21:16;;;;;;;5.03;3.38;;;;;;;19.54;83.86;99024.47;12234032;19;20010;-80
2022/08/16 00:25:20;;;;;;;6.37;3.67;;;;;;;19.51;84.45;99030.72;12230529;19;20002;-82
2022/08/16 00:29:42;;;;;;;7.13;4.28;;;;;;;19.47;84.57;99034.47;12214961;19;20047;-82
2022/08/16 00:33:46;;;;;;;6.82;4.00;;;;;;;19.42;85.04;99041.03;12235526;19;20010;-83
2022/08/16 00:37:51;;;;;;;8.02;3.70;;;;;;;19.39;85.27;99036.09;12211685;19;20006;-82
2022/08/16 00:41:59;;;;;;;9.00;3.95;;;;;;;19.38;85.57;99042.03;12234525;19;20007;-82
2022/08/16 00:46:20;;;;;;;5.85;3.25;;;;;;;19.34;86.34;99039.06;12228140;19;20014;-82
2022/08/16 00:50:36;;;;;;;5.33;3.90;;;;;;;19.34;85.73;99036.28;12206463;19;20003;-81
2022/08/16 00:54:40;;;;;;;6.10;3.85;;;;;;;19.31;86.07;99034.97;12227808;19;20030;-82
2022/08/16 00:58:45;;;;;;;6.28;3.33;;;;;;;19.30;86.24;99026.91;12206266;19;20027;-83
2022/08/16 01:02:47;;;;;;;6.68;4.03;;;;;;;19.28;86.70;99023.63;12230997;19;20007;-83
2022/08/16 01:06:49;;;;;;;5.03;4.10;;;;;;;19.26;86.59;99028.72;12226687;19;20014;-84
2022/08/16 01:11:05;;;;;;;8.63;4.72;;;;;;;19.24;87.00;99039.38;12204886;19;20011;-82
2022/08/16 01:15:07;;;;;;;8.05;4.45;;;;;;;19.21;86.99;99031.66;12224125;19;20489;-84
2022/08/16 01:19:38;;;;;;;5.65;4.00;;;;;;;19.17;87.60;99030.66;12227462;19;20029;-81
2022/08/16 01:24:00;;;;;;;7.53;3.97;;;;;;;19.11;87.44;99033.59;12210860;19;20107;-83
2022/08/16 01:28:07;;;;;;;5.72;3.90;;;;;;;19.07;87.96;99035.41;12226854;19;20014;-83
2022/08/16 01:32:09;;;;;;;7.25;4.10;;;;;;;19.05;88.46;99042.47;12203235;19;20470;-84
2022/08/16 01:36:10;;;;;;;8.68;4.40;;;;;;;19.02;88.67;99035.56;12226056;19;20022;-85
2022/08/16 01:40:17;;;;;;;7.25;4.40;;;;;;;19.00;89.00;99032.25;12226065;19;20003;-83
2022/08/16 01:44:19;;;;;;;6.72;4.80;;;;;;;18.99;89.27;99039.00;12203290;19;20131;-82
2022/08/16 01:48:24;;;;;;;7.28;5.15;;;;;;;18.98;89.22;99030.97;12225338;19;20086;-82
2022/08/16 01:52:28;;;;;;;6.68;4.45;;;;;;;18.96;89.24;99028.50;12211278;19;20410;-81
2022/08/16 01:56:44;;;;;;;6.88;4.80;;;;;;;18.95;89.82;99034.38;12226666;19;20524;-81
2022/08/16 02:00:49;;;;;;;6.45;4.57;;;;;;;18.93;89.98;99034.72;12224936;19;20007;-81
2022/08/16 02:04:52;;;;;;;6.20;4.47;;;;;;;18.91;90.28;99034.22;12203028;19;20018;-81
2022/08/16 02:08:58;;;;;;;7.45;4.85;;;;;;;18.89;91.26;99036.53;12225206;19;20015;-82
2022/08/16 02:13:00;;;;;;;10.68;4.72;;;;;;;18.86;91.38;99045.56;12224303;19;20013;-81
2022/08/16 02:17:07;;;;;;;6.40;4.25;;;;;;;18.83;91.47;99037.81;12203116;19;20518;-81
2022/08/16 02:21:10;;;;;;;10.25;5.00;;;;;;;18.81;91.75;99040.91;12224040;19;20432;-80
2022/08/16 02:25:16;;;;;;;6.53;4.78;;;;;;;18.77;91.99;99033.50;12222011;19;20089;-81
2022/08/16 02:29:19;;;;;;;8.13;4.40;;;;;;;18.74;91.64;99032.22;12202997;19;20023;-81
2022/08/16 02:33:22;;;;;;;8.82;5.25;;;;;;;18.68;92.33;99034.28;12220737;19;20010;-81
2022/08/16 02:37:46;;;;;;;7.65;4.72;;;;;;;18.65;92.74;99025.75;12201994;19;20466;-80
2022/08/16 02:41:55;;;;;;;6.90;5.03;;;;;;;18.61;93.06;99022.75;12223361;19;20038;-80
2022/08/16 02:45:58;;;;;;;7.82;5.03;;;;;;;18.59;93.25;99025.06;12222892;19;20007;-81
2022/08/16 02:50:03;;;;;;;9.50;4.72;;;;;;;18.56;93.51;99027.66;12199108;19;20474;-81
2022/08/16 02:54:26;;;;;;;8.98;5.25;;;;;;;18.54;93.84;99021.59;12221522;19;20469;-81
2022/08/16 02:58:28;;;;;;;8.77;5.13;;;;;;;18.52;94.33;99019.09;12208169;19;20017;-81
2022/08/16 03:02:31;;;;;;;8.25;5.75;;;;;;;18.50;94.27;99020.56;12217919;19;20002;-81
2022/08/16 03:06:38;;;;;;;8.48;5.20;;;;;;;18.47;94.57;99022.03;12219004;19;20529;-81
2022/08/16 03:10:55;;;;;;;9.90;5.93;;;;;;;18.45;94.71;99029.91;12196701;19;20014;-81
2022/08/16 03:14:59;;;;;;;7.93;5.55;;;;;;;18.41;95.33;99026.09;12219446;19;20011;-81
2022/08/16 03:19:03;;;;;;;8.82;5.53;;;;;;;18.37;95.73;99030.69;12218981;19;20095;-81
2022/08/16 03:23:07;;;;;;;8.70;5.97;;;;;;;18.34;95.78;99026.56;12195859;19;20367;-81
2022/08/16 03:27:09;;;;;;;9.15;5.80;;;;;;;18.31;95.88;99032.78;12216301;19;19999;-81
2022/08/16 03:31:11;;;;;;;10.02;5.63;;;;;;;18.29;96.22;99034.25;12215680;19;20018;-81
2022/08/16 03:35:17;;;;;;;7.63;6.03;;;;;;;18.26;96.58;99034.91;12194478;19;20483;-81
2022/08/16 03:39:19;;;;;;;8.95;5.38;;;;;;;18.24;96.50;99034.41;12229023;19;20018;-82
2022/08/16 03:43:23;;;;;;;8.85;5.75;;;;;;;18.18;97.14;99034.53;12230497;19;20077;-81
2022/08/16 03:47:49;;;;;;;9.40;5.78;;;;;;;18.13;97.38;99037.44;12248377;19;20014;-81
2022/08/16 03:51:58;;;;;;;8.63;6.15;;;;;;;18.07;98.34;99035.94;12138321;19;2727493;-81
2022/08/16 03:56:06;;;;;;;8.82;6.60;;;;;;;18.07;98.26;99023.97;12219933;19;20494;-81
2022/08/16 04:00:27;;;;;;;11.77;6.65;;;;;;;18.04;98.41;99022.63;12231914;19;20495;-82
2022/08/16 04:04:47;;;;;;;9.32;6.75;;;;;;;18.03;99.04;99029.38;12210679;19;20096;-81
2022/08/16 04:08:51;;;;;;;10.25;6.53;;;;;;;18.04;99.04;99031.00;12234915;19;20066;-81
2022/08/16 04:12:54;;;;;;;10.23;6.55;;;;;;;18.04;99.03;99028.22;12239749;19;20015;-81
2022/08/16 04:17:04;;;;;;;8.65;5.82;;;;;;;18.03;99.19;99034.13;12209728;19;20083;-81
2022/08/16 04:21:10;;;;;;;9.45;6.05;;;;;;;17.99;99.77;99036.69;12230617;19;20015;-81
2022/08/16 04:25:12;;;;;;;8.30;6.53;;;;;;;17.99;99.49;99042.28;12229917;19;20329;-82
2022/08/16 04:29:15;;;;;;;9.60;6.60;;;;;;;17.99;99.82;99042.28;12211647;19;20006;-80
2022/08/16 04:33:25;;;;;;;9.05;6.72;;;;;;;18.01;99.93;99048.38;12231046;19;20011;-81
2022/08/16 04:37:31;;;;;;;14.18;7.40;;;;;;;18.02;99.83;99044.44;12209619;19;20054;-81
2022/08/16 04:41:50;;;;;;;9.82;6.68;;;;;;;18.06;99.93;99039.88;12231689;19;20011;-81
2022/08/16 04:45:59;;;;;;;10.93;6.72;;;;;;;18.09;100.00;99046.78;12227847;19;20019;-81
2022/08/16 04:50:13;;;;;;;8.65;6.47;;;;;;;18.12;100.00;99037.78;12209191;19;20017;-81
2022/08/16 04:54:31;;;;;;;11.48;7.03;;;;;;;18.15;99.91;99039.94;12232761;19;20010;-81
2022/08/16 04:58:33;;;;;;;13.27;7.38;;;;;;;18.17;100.00;99049.63;12208796;19;20495;-81
2022/08/16 05:02:51;;;;;;;13.68;7.43;;;;;;;18.21;100.00;99052.59;12227357;19;20010;-81
2022/08/16 05:06:59;;;;;;;10.25;7.20;;;;;;;18.24;99.92;99065.09;12227478;19;20006;-81
2022/08/16 05:11:21;;;;;;;9.00;6.53;;;;;;;18.28;100.00;99066.91;12204424;19;20390;-81
2022/08/16 05:15:24;;;;;;;9.50;6.90;;;;;;;18.31;99.99;99065.44;12226860;19;20355;-81
2022/08/16 05:19:26;;;;;;;;;;;;;;;18.36;100.00;99068.09;12228765;19;20003;-81
2022/08/16 05:23:45;;;;;;;10.00;7.03;;;;;;;18.39;99.66;99073.03;12203849;19;19934;-80
2022/08/16 05:28:02;;;;;;;11.60;7.30;;;;;;;18.47;99.17;99075.03;12231014;19;20007;-81
2022/08/16 05:32:04;;;;;;;;;;;;;;;18.64;99.24;99080.72;12206448;19;20007;-81
2022/08/16 05:36:27;;;;;;;11.23;6.40;;;;;;;18.90;97.71;99083.66;12228264;19;19910;-81
2022/08/16 05:40:38;;;;;;;10.20;6.70;;;;;;;19.10;97.08;99087.81;12206531;19;20046;-81
2022/08/16 05:44:39;;;;;;;10.35;7.00;;;;;;;19.18;96.53;99094.56;12229329;19;20010;-81
2022/08/16 05:48:45;;;;;;;10.27;7.35;;;;;;;19.19;96.60;99092.63;12229465;19;20002;-81
2022/08/16 05:52:55;;;;;;;10.25;8.13;;;;;;;19.24;96.36;99106.41;12205912;19;20014;-81
2022/08/16 05:56:58;;;;;;;13.18;8.38;;;;;;;19.28;95.79;99105.44;12225962;19;20014;-81
2022/08/16 06:01:02;;;;;;;9.68;6.38;;;;;;;19.32;95.58;99103.63;12222417;19;20010;-81
2022/08/16 06:05:09;;;;;;;11.70;8.27;;;;;;;19.34;95.46;99097.75;12202003;19;20090;-81
2022/08/16 06:09:12;;;;;;;;;;;;;;;19.41;94.98;99108.44;12224518;19;20014;-81
2022/08/16 06:13:14;;;;;;;13.32;7.55;;;;;;;19.46;94.94;99106.31;12222287;19;19907;-82
2022/08/16 06:17:18;;;;;;;13.98;9.35;;;;;;;19.56;94.33;99114.38;12200957;19;20002;-81
2022/08/16 06:21:23;;;;;;;13.43;8.00;;;;;;;19.68;93.73;99107.34;12222186;19;20471;-81
2022/08/16 06:25:32;;;;;;;13.32;8.82;;;;;;;19.82;93.77;99112.78;12199616;19;20432;-81
2022/08/16 06:29:37;;;;;;;13.63;8.25;;;;;;;20.08;92.40;99115.56;12223532;19;20037;-80
2022/08/16 06:33:40;;;;;;;14.53;10.33;;;;;;;20.22;90.15;99111.44;12221954;19;20006;-81
2022/08/16 06:37:47;;;;;;;15.73;9.43;;;;;;;20.33;89.56;99116.72;12201195;19;20153;-81
2022/08/16 06:41:53;;;;;;;10.45;9.32;;;;;;;20.44;88.88;99116.03;12221421;19;20501;-81
2022/08/16 06:46:36;;;;;;;13.88;9.45;;;;;;;20.59;88.25;99120.31;12219695;19;20010;-82
2022/08/16 06:50:46;;;;;;;28.45;10.32;;;;;;;20.73;87.56;99119.25;12200216;19;20007;-81
2022/08/16 06:54:49;;;;;;;18.00;8.80;;;;;;;20.84;86.33;99124.16;12221962;19;20332;-81
2022/08/16 06:58:53;;;;;;;14.32;8.32;;;;;;;21.01;85.36;99125.28;12200585;19;20480;-81
2022/08/16 07:02:58;;;;;;;17.25;9.68;;;;;;;21.18;85.00;99130.81;12219252;19;20075;-81
2022/08/16 07:07:04;;;;;;;13.13;9.15;;;;;;;21.36;83.50;99137.16;12219533;19;20003;-81
2022/08/16 07:11:07;;;;;;;12.80;9.15;;;;;;;21.52;81.58;99134.59;12200108;19;20429;-81
2022/08/16 07:15:10;;;;;;;13.25;8.52;;;;;;;21.70;81.05;99138.91;12232356;19;20018;-81
2022/08/16 07:19:19;;;;;;;13.65;8.65;;;;;;;21.94;80.27;99138.25;12232606;19;20002;-81
2022/08/16 07:23:21;;;;;;;14.10;9.60;;;;;;;22.10;79.27;99127.25;12210234;19;20015;-81
2022/08/16 07:27:40;;;;;;;11.40;8.98;;;;;;;22.35;77.85;99128.19;12230257;19;20030;-81
2022/08/16 07:31:45;;;;;;;27.30;12.07;;;;;;;22.47;76.52;99131.03;12205813;19;20487;-80
2022/08/16 07:35:51;;;;;;;16.88;9.75;;;;;;;22.70;76.19;99134.28;12232418;19;20458;-82
2022/08/16 07:39:53;;;;;;;14.32;10.13;;;;;;;22.82;75.61;99129.84;12233430;19;20291;-81
2022/08/16 07:43:56;;;;;;;17.38;10.00;;;;;;;22.93;75.06;99137.47;12210656;19;20110;-81
2022/08/16 07:48:00;;;;;;;13.63;9.55;;;;;;;23.14;73.64;99139.38;12227497;19;20006;-81
2022/08/16 07:52:16;;;;;;;14.93;10.73;;;;;;;23.26;72.73;99135.75;12230781;19;20021;-81
2022/08/16 07:56:22;;;;;;;16.80;9.52;;;;;;;23.37;72.50;99139.75;12212613;19;20502;-81
2022/08/16 08:00:35;;;;;;;15.10;9.13;;;;;;;23.50;72.14;99141.41;12234850;19;20007;-82
2022/08/16 08:04:39;;;;;;;21.88;9.30;;;;;;;23.73;69.98;99140.91;12209206;19;20545;-81
2022/08/16 08:08:41;;;;;;;13.95;8.52;;;;;;;23.95;68.61;99145.22;12232607;19;20518;-82
2022/08/16 08:12:53;;;;;;;10.88;8.07;;;;;;;24.15;66.79;99152.66;12233301;19;20017;-81
2022/08/16 08:17:00;;;;;;;14.70;9.73;;;;;;;24.54;65.86;99148.22;12209884;19;20007;-81
2022/08/16 08:21:08;;;;;;;11.82;8.30;;;;;;;24.71;65.17;99154.69;12229152;19;20080;-82
2022/08/16 08:25:10;;;;;;;13.65;8.23;;;;;;;24.89;63.78;99147.53;12228952;19;20032;-82
2022/08/16 08:29:18;;;;;;;12.65;8.27;;;;;;;25.04;63.10;99139.44;12208392;19;20011;-82
2022/08/16 08:33:38;;;;;;;14.57;8.23;;;;;;;24.84;63.49;99152.59;12229880;19;20011;-81
2022/08/16 08:37:44;;;;;;;10.13;7.97;;;;;;;25.19;62.75;99150.78;12216721;19;20010;-82
2022/08/16 08:42:01;;;;;;;10.93;8.07;;;;;;;25.41;61.19;99154.94;12280794;19;20018;-82
2022/08/16 08:46:05;;;;;;;12.07;7.70;;;;;;;25.27;60.96;99150.94;12277410;19;20015;-84
2022/08/16 08:50:20;;;;;;;15.60;7.38;;;;;;;25.88;59.63;99158.91;12258105;19;20003;-84
2022/08/16 08:54:33;;;;;;;12.75;7.57;;;;;;;26.25;58.55;99156.50;12256526;19;20131;-83
2022/08/16 08:58:39;;;;;;;8.82;7.63;;;;;;;26.35;56.56;99155.06;12213461;19;20426;-83
2022/08/16 09:03:16;;;;;;;8.10;6.88;;;;;;;26.73;54.93;99165.56;12232442;19;20007;-83
2022/08/16 09:07:20;;;;;;;15.13;9.10;;;;;;;27.28;53.17;99162.56;12232776;19;20527;-83
2022/08/16 09:11:28;;;;;;;8.48;7.53;;;;;;;27.64;52.61;99158.31;12211936;19;20013;-83
2022/08/16 09:15:43;;;;;;;8.98;7.30;;;;;;;27.65;52.28;99164.78;12232533;19;20024;-83
2022/08/16 09:19:45;;;;;;;9.97;6.10;;;;;;;27.83;51.60;99162.25;12213181;19;20014;-83
2022/08/16 09:23:49;;;;;;;7.57;6.60;;;;;;;28.22;50.08;99159.97;12235622;19;20272;-84
2022/08/16 09:27:53;;;;;;;10.65;7.68;;;;;;;28.38;49.06;99168.28;12230904;19;20007;-83
2022/08/16 09:32:05;;;;;;;8.35;6.53;;;;;;;28.27;48.85;99168.13;12210448;19;20045;-84
2022/08/16 09:36:09;;;;;;;9.60;6.75;;;;;;;28.46;48.60;99169.19;12227709;19;20070;-82
2022/08/16 09:40:31;;;;;;;13.18;7.45;;;;;;;28.48;47.57;99167.63;12209795;19;20825;-83
2022/08/16 09:44:43;;;;;;;;;;;;;;;28.63;47.75;99158.06;12232725;19;20003;-83
2022/08/16 09:49:04;;;;;;;11.70;6.15;;;;;;;28.38;48.01;99157.75;12231990;19;19939;-83
2022/08/16 09:53:21;;;;;;;28.00;7.63;;;;;;;28.56;47.51;99169.34;12216801;19;20394;-83
2022/08/16 09:57:23;;;;;;;10.07;6.65;;;;;;;28.74;45.91;99155.38;12231398;19;20015;-84
2022/08/16 10:01:37;;;;;;;9.40;6.72;;;;;;;28.63;45.63;99162.94;12208146;19;20011;-83
2022/08/16 10:05:45;;;;;;;10.75;7.28;;;;;;;28.82;45.66;99156.25;12248153;19;20014;-85
2022/08/16 10:09:46;;;;;;;11.27;7.88;;;;;;;29.15;44.93;99155.41;12278192;19;20014;-83
2022/08/16 10:13:56;;;;;;;9.18;6.53;;;;;;;28.99;45.30;99154.81;12240205;19;20011;-82
2022/08/16 10:17:59;;;;;;;8.77;6.88;;;;;;;28.73;45.60;99165.06;12247800;19;20014;-83
2022/08/16 10:22:21;;;;;;;;;;;;;;;28.37;46.59;99155.28;12237452;19;20365;-83
2022/08/16 10:26:23;;;;;;;7.53;6.13;;;;;;;28.87;46.04;99155.91;12212629;19;19910;-84
2022/08/16 10:30:46;;;;;;;10.40;6.80;;;;;;;29.20;44.63;99151.38;12232952;19;20011;-83
2022/08/16 10:34:57;;;;;;;9.13;7.53;;;;;;;29.37;44.32;99159.25;12214708;19;20014;-83
2022/08/16 10:38:59;;;;;;;7.88;6.93;;;;;;;29.41;43.95;99142.25;12232904;19;20467;-83
2022/08/16 10:43:01;;;;;;;8.38;6.43;;;;;;;29.78;42.58;99150.69;12231558;19;20023;-83
2022/08/16 10:47:04;;;;;;;13.88;6.78;;;;;;;30.09;42.29;99151.25;12207776;19;20014;-84
2022/08/16 10:51:08;;;;;;;9.93;7.20;;;;;;;30.32;41.30;99146.13;12231795;19;20007;-83
2022/08/16 10:55:11;;;;;;;10.32;6.43;;;;;;;30.55;40.79;99144.97;12229701;19;20015;-83
2022/08/16 10:59:33;;;;;;;6.85;6.15;;;;;;;30.25;40.90;99151.75;12205144;19;20094;-83
2022/08/16 11:03:53;;;;;;;9.38;6.30;;;;;;;29.53;41.69;99153.28;12227913;19;20006;-83
2022/08/16 11:07:57;;;;;;;12.50;7.13;;;;;;;29.57;42.02;99151.31;12204161;19;20010;-83
2022/08/16 11:12:06;;;;;;;12.73;7.22;;;;;;;30.23;40.97;99139.19;12226548;19;20014;-83
2022/08/16 11:16:15;;;;;;;7.85;6.28;;;;;;;30.57;39.85;99142.56;12227830;19;20450;-82
2022/08/16 11:20:37;;;;;;;9.57;6.37;;;;;;;30.54;40.02;99149.06;12205391;19;20108;-82
2022/08/16 11:24:42;;;;;;;14.23;6.15;;;;;;;30.76;39.79;99147.91;12227186;19;20018;-83
2022/08/16 11:28:47;;;;;;;8.63;6.32;;;;;;;31.00;39.12;99156.94;12205187;19;20002;-83
2022/08/16 11:33:09;;;;;;;6.93;6.22;;;;;;;31.27;37.84;99151.69;12223442;19;20364;-82
2022/08/16 11:37:11;;;;;;;9.00;6.35;;;;;;;31.44;37.83;99150.06;12226308;19;20007;-83
2022/08/16 11:41:34;;;;;;;7.57;5.47;;;;;;;31.75;37.00;99154.94;12205902;19;20013;-83
2022/08/16 11:45:37;;;;;;;8.88;6.00;;;;;;;32.30;36.25;99150.75;12230658;19;20002;-83
2022/08/16 11:49:38;;;;;;;17.20;7.60;;;;;;;32.35;35.39;99155.22;12211866;19;20015;-83
2022/08/16 11:53:40;;;;;;;6.68;6.07;;;;;;;33.16;35.72;99155.25;12228527;19;20023;-83
2022/08/16 11:57:42;;;;;;;7.53;6.47;;;;;;;33.69;34.54;99148.31;12242675;19;20023;-84
2022/08/16 12:01:45;;;;;;;6.78;6.13;;;;;;;33.99;32.94;99145.53;12212015;19;20018;-84
2022/08/16 12:06:06;;;;;;;7.45;6.65;;;;;;;34.40;32.43;99141.03;12232729;19;20030;-84
2022/08/16 12:10:14;;;;;;;7.80;6.28;;;;;;;34.94;31.76;99136.19;12237441;19;20019;-84
2022/08/16 12:14:16;;;;;;;7.80;7.00;;;;;;;35.09;31.02;99142.53;12212503;19;20344;-83
2022/08/16 12:18:18;;;;;;;7.47;6.60;;;;;;;34.60;31.61;99132.63;12235600;19;20011;-85
2022/08/16 12:22:23;;;;;;;8.25;6.15;;;;;;;33.56;32.46;99139.44;12236175;19;20010;-83
2022/08/16 12:26:25;;;;;;;8.10;7.25;;;;;;;32.92;33.48;99140.69;12211095;19;20007;-82
2022/08/16 12:30:29;;;;;;;;;;;;;;;33.34;33.14;99127.34;12232299;19;20010;-83
2022/08/16 12:34:38;;;;;;;7.37;6.00;;;;;;;33.40;33.00;99131.38;12211176;19;19914;-83
2022/08/16 12:38:54;;;;;;;7.30;6.00;;;;;;;35.08;31.21;99131.53;12235034;19;20038;-83
2022/08/16 12:42:59;;;;;;;7.60;6.70;;;;;;;35.96;29.68;99127.56;12233347;19;20003;-83
2022/08/16 12:51:31;;;;;;;6.72;5.93;;;;;;;36.92;27.41;99119.03;12230032;19;20014;-85
2022/08/16 12:55:52;;;;;;;6.38;5.78;;;;;;;37.41;27.82;99111.25;12211050;19;20081;-84
2022/08/16 12:59:54;;;;;;;8.45;6.18;;;;;;;38.13;26.25;99111.44;12231755;19;20021;-85
2022/08/16 13:03:57;;;;;;;7.13;5.32;;;;;;;38.80;25.49;99108.63;12231299;19;20014;-85
2022/08/16 13:08:19;;;;;;;9.65;5.70;;;;;;;39.22;24.50;99107.72;12206049;19;20007;-84
2022/08/16 13:12:23;;;;;;;5.63;5.00;;;;;;;39.49;23.62;99113.00;12230427;19;20010;-84
2022/08/16 13:16:25;;;;;;;5.45;4.95;;;;;;;39.68;23.36;99116.88;12232107;19;20003;-84
2022/08/16 13:20:30;;;;;;;5.43;4.70;;;;;;;39.66;23.04;99100.06;12209533;19;20017;-85
2022/08/16 13:24:32;;;;;;;4.65;4.20;;;;;;;40.19;22.98;99103.13;12231723;19;20025;-84
2022/08/16 13:28:35;;;;;;;5.88;4.20;;;;;;;40.18;22.40;99095.72;12210430;19;20461;-84
2022/08/16 13:32:37;;;;;;;4.85;4.40;;;;;;;40.95;21.82;99096.03;12241253;19;20015;-83
2022/08/16 13:36:41;;;;;;;5.97;4.00;;;;;;;41.07;21.41;99091.44;12233553;19;20016;-83
2022/08/16 13:40:55;;;;;;;5.20;3.88;;;;;;;41.30;21.13;99087.19;12210114;19;20024;-82
2022/08/16 13:44:57;;;;;;;5.07;4.47;;;;;;;39.40;23.30;99094.34;12233743;19;20014;-82
2022/08/16 13:48:59;;;;;;;4.75;4.30;;;;;;;37.71;24.14;99091.22;12232756;19;20014;-81
2022/08/16 13:53:02;;;;;;;7.32;4.45;;;;;;;38.58;24.36;99090.41;12209725;19;20019;-83
2022/08/16 13:57:05;;;;;;;5.63;4.38;;;;;;;39.72;23.12;99089.53;12223785;19;20333;-80
2022/08/16 14:01:12;;;;;;;5.35;4.60;;;;;;;40.64;22.54;99086.59;12231577;19;20002;-84
2022/08/16 14:05:15;;;;;;;4.78;4.28;;;;;;;40.93;21.40;99083.34;12208001;19;20007;-81
2022/08/16 14:09:25;;;;;;;5.50;4.05;;;;;;;41.17;21.57;99077.81;12229874;19;20010;-81
2022/08/16 14:13:28;;;;;;;4.57;3.80;;;;;;;40.70;21.74;99065.28;12216111;19;20021;-84
2022/08/16 14:17:30;;;;;;;3.67;3.38;;;;;;;39.27;22.21;99078.34;12227928;19;20002;-83
2022/08/16 14:21:56;;;;;;;5.15;3.92;;;;;;;37.61;23.97;99068.06;12228917;19;20011;-80
2022/08/16 14:26:19;;;;;;;4.15;3.75;;;;;;;35.60;26.08;99076.66;12206825;19;20049;-83
2022/08/16 14:30:22;;;;;;;4.88;4.13;;;;;;;34.43;27.42;99062.94;12223967;19;20014;-82
2022/08/16 14:34:24;;;;;;;5.88;4.75;;;;;;;33.88;28.05;99064.84;12225827;19;20514;-84
2022/08/16 14:38:30;;;;;;;6.55;4.47;;;;;;;33.31;28.89;99063.34;12210703;19;20014;-85
2022/08/16 14:42:40;;;;;;;7.47;4.32;;;;;;;32.76;29.80;99046.25;12235485;19;20014;-86
2022/08/16 14:46:44;;;;;;;4.43;4.03;;;;;;;32.82;29.80;99050.28;12207507;19;20006;-86
2022/08/16 14:50:46;;;;;;;5.55;4.10;;;;;;;32.77;29.50;99042.97;12222682;19;20359;-86
2022/08/16 14:54:52;;;;;;;6.35;4.10;;;;;;;33.37;28.92;99046.56;12224877;19;20018;-86
2022/08/16 14:58:54;;;;;;;5.18;3.90;;;;;;;33.89;28.16;99037.06;12201064;19;20010;-82
2022/08/16 15:02:57;;;;;;;;;;;;;;;33.46;29.12;99044.03;12226179;19;20002;-85
2022/08/16 15:06:58;;;;;;;4.97;4.03;;;;;;;33.10;29.25;99040.69;12223128;19;19919;-84
2022/08/16 15:11:00;;;;;;;5.90;3.58;;;;;;;32.76;29.73;99038.50;12204273;19;20010;-85
2022/08/16 15:15:09;;;;;;;4.13;3.70;;;;;;;32.42;30.26;99033.41;12223382;19;20404;-82
2022/08/16 15:19:17;;;;;;;6.47;3.88;;;;;;;32.02;30.30;99042.56;12225552;19;20034;-87
2022/08/16 15:23:21;;;;;;;5.55;3.92;;;;;;;31.95;30.37;99041.38;12203120;19;20034;-86
2022/08/16 15:27:26;;;;;;;4.38;3.42;;;;;;;31.67;30.77;99036.53;12222365;19;20010;-82
2022/08/16 15:31:36;;;;;;;6.70;3.90;;;;;;;31.35;31.01;99041.50;12203894;19;20014;-82
2022/08/16 15:35:38;;;;;;;5.70;3.70;;;;;;;31.22;31.63;99047.59;12234110;19;20027;-85
2022/08/16 15:39:40;;;;;;;4.28;3.67;;;;;;;31.07;32.10;99045.97;12234789;19;20018;-82
2022/08/16 15:43:48;;;;;;;6.03;3.58;;;;;;;30.78;33.28;99051.63;12208941;19;20480;-83
2022/08/16 15:48:07;;;;;;;5.47;4.00;;;;;;;30.81;32.80;99050.03;12236791;19;20466;-85
2022/08/16 15:52:16;;;;;;;5.20;3.90;;;;;;;30.75;32.35;99046.72;12233672;19;20014;-84
2022/08/16 15:56:22;;;;;;;5.28;4.05;;;;;;;30.66;32.59;99049.97;12215714;19;20025;-85
2022/08/16 16:00:29;;;;;;;5.03;3.58;;;;;;;30.73;32.57;99051.19;12230116;19;20018;-84
2022/08/16 16:04:32;;;;;;;4.80;3.78;;;;;;;30.64;32.89;99057.31;12210367;19;20019;-84
2022/08/16 16:08:35;;;;;;;4.47;3.58;;;;;;;30.64;32.55;99054.47;12230756;19;20053;-81
2022/08/16 16:12:42;;;;;;;8.57;3.65;;;;;;;30.63;32.83;99058.50;12227445;19;20007;-87
2022/08/16 16:16:54;;;;;;;4.15;3.72;;;;;;;30.61;33.22;99046.75;12216821;19;20014;-84
2022/08/16 16:21:00;;;;;;;6.75;3.47;;;;;;;30.50;32.81;99045.91;12236835;19;20002;-84
2022/08/16 16:25:02;;;;;;;4.55;3.75;;;;;;;30.42;32.99;99045.88;12235528;19;20186;-84
2022/08/16 16:29:05;;;;;;;5.63;3.20;;;;;;;30.36;33.20;99036.09;12213869;19;20042;-84
2022/08/16 16:33:18;;;;;;;6.47;3.83;;;;;;;30.30;33.55;99043.41;12234063;19;20014;-84
2022/08/16 16:37:22;;;;;;;5.07;3.90;;;;;;;30.15;33.59;99036.03;12237081;19;20002;-84
2022/08/16 16:41:27;;;;;;;4.97;3.80;;;;;;;30.08;33.57;99044.53;12213865;19;20011;-82
2022/08/16 16:45:29;;;;;;;4.15;3.40;;;;;;;29.98;34.31;99031.88;12232753;19;20082;-82
2022/08/16 16:49:35;;;;;;;5.13;3.78;;;;;;;29.91;34.18;99041.19;12211734;19;20007;-82
2022/08/16 16:53:48;;;;;;;5.75;3.80;;;;;;;29.84;34.33;99038.34;12232317;19;20022;-85
2022/08/16 17:02:29;;;;;;;6.82;3.80;;;;;;;29.77;34.97;99037.47;12214296;19;20015;-83
2022/08/16 17:06:50;;;;;;;4.72;4.07;;;;;;;29.72;34.79;99030.16;12236596;19;20034;-84
2022/08/16 17:10:58;;;;;;;5.18;3.80;;;;;;;29.71;34.95;99029.34;12216832;19;20014;-83
2022/08/16 17:15:00;;;;;;;6.30;3.67;;;;;;;29.74;35.03;99030.56;12250912;19;20006;-83
2022/08/16 17:19:06;;;;;;;5.85;4.07;;;;;;;29.70;35.09;99033.41;12236691;19;20066;-83
2022/08/16 17:23:23;;;;;;;6.95;4.20;;;;;;;29.65;34.96;99027.28;12222666;19;20007;-83
2022/08/16 17:27:44;;;;;;;6.73;4.03;;;;;;;29.52;35.19;99033.25;12253399;19;20046;-86
2022/08/16 17:31:51;;;;;;;5.50;4.00;;;;;;;29.48;35.15;99032.44;12212224;19;20014;-81
2022/08/16 17:35:53;;;;;;;5.03;3.72;;;;;;;29.41;35.40;99040.09;12222607;19;20021;-84
2022/08/16 17:40:00;;;;;;;16.27;4.18;;;;;;;29.30;35.63;99038.00;12224779;19;20025;-84
2022/08/16 17:44:11;;;;;;;5.05;4.10;;;;;;;29.27;35.60;99029.44;12201868;19;20027;-84
2022/08/16 17:48:13;;;;;;;4.95;3.80;;;;;;;29.20;35.64;99040.75;12222025;19;20028;-81
2022/08/16 17:52:16;;;;;;;5.07;4.13;;;;;;;29.07;36.09;99040.25;12222320;19;20010;-81
2022/08/16 17:56:19;;;;;;;5.35;3.63;;;;;;;28.99;36.41;99045.00;12200784;19;20007;-82
2022/08/16 18:00:22;;;;;;;7.00;3.80;;;;;;;28.94;36.31;99039.69;12218501;19;20067;-81
2022/08/16 18:04:25;;;;;;;4.25;3.47;;;;;;;28.78;36.58;99037.13;12223588;19;20386;-83
2022/08/16 18:08:47;;;;;;;4.35;3.65;;;;;;;28.59;36.95;99043.84;12198493;19;20549;-86
2022/08/16 18:12:54;;;;;;;9.60;4.25;;;;;;;28.39;37.78;99039.56;12230476;19;20011;-84
2022/08/16 18:16:56;;;;;;;11.05;4.10;;;;;;;28.20;37.87;99048.22;12209198;19;20336;-83
2022/08/16 18:25:19;;;;;;;4.55;3.67;;;;;;;27.68;38.70;99045.94;12231000;19;20387;-85
2022/08/16 18:29:21;;;;;;;10.32;3.70;;;;;;;27.43;39.14;99051.25;12207890;19;20021;-84
2022/08/16 18:33:25;;;;;;;4.93;3.65;;;;;;;27.19;40.32;99061.00;12226319;19;20472;-83
2022/08/16 18:37:26;;;;;;;5.03;3.78;;;;;;;26.94;40.24;99057.72;12227975;19;20478;-83
2022/08/16 18:41:29;;;;;;;4.97;3.37;;;;;;;26.70;40.69;99058.91;12206877;19;20394;-84
2022/08/16 18:45:34;;;;;;;4.65;3.92;;;;;;;26.48;41.49;99059.69;12226180;19;20130;-83
2022/08/16 18:49:37;;;;;;;7.38;3.83;;;;;;;26.23;41.67;99057.19;12203624;19;20011;-83
2022/08/16 18:53:38;;;;;;;6.23;4.00;;;;;;;26.02;42.42;99059.59;12226056;19;20068;-83
2022/08/16 18:57:40;;;;;;;15.30;4.53;;;;;;;25.83;42.50;99061.22;12226946;19;20122;-83
2022/08/16 19:01:42;;;;;;;5.03;3.88;;;;;;;25.67;43.16;99066.06;12204814;19;20015;-83
2022/08/16 19:05:48;;;;;;;6.60;3.50;;;;;;;25.50;43.62;99067.31;12229255;19;20014;-83
2022/08/16 19:09:49;;;;;;;6.40;4.15;;;;;;;25.33;44.15;99076.19;12238776;19;20010;-83
2022/08/16 19:13:51;;;;;;;7.22;3.97;;;;;;;25.16;44.09;99069.72;12229233;19;20080;-83
2022/08/16 19:17:54;;;;;;;6.13;4.10;;;;;;;25.00;44.62;99069.72;12245809;19;20359;-83
2022/08/16 19:21:57;;;;;;;7.28;4.60;;;;;;;24.87;45.46;99082.28;12244360;19;20014;-83